utilisation pie
utilisation bar
humidity graph
temperature graph
Station id: aae83c for 2 days

start:   stop:  

day time in temp out temp in RH out RH H quota rule action
2020-01-20 00:05:37 8.2 1.4 57 84 93 T
1
2020-01-20 00:35:39 7.8 0.2 57 89 92 T
1
2020-01-20 01:05:40 7.9 0.1 56 90 94 T
1
2020-01-20 01:35:41 7.8 0.2 56 88 93 T
1
2020-01-20 02:05:42 7.8 0.5 56 84 91 T
1
2020-01-20 02:35:43 7.9 0.6 55 81 90 T
1
2020-01-20 03:05:44 7.8 0.5 55 83 91 T
1
2020-01-20 03:35:45 7.8 0.5 55 84 92 T
1
2020-01-20 04:05:46 7.8 0.3 55 85 92 T
1
2020-01-20 04:35:48 7.9 0.2 54 85 92 T
1
2020-01-20 05:05:49 7.9 0.5 54 80 89 T
1
2020-01-20 05:35:50 7.8 0.5 54 81 90 T
1
2020-01-20 06:05:51 8.2 0.5 53 80 89 T
1
2020-01-20 06:35:52 8.3 0.5 53 81 91 T
1
2020-01-20 07:05:53 8.3 0.4 52 81 91 T
1
2020-01-20 07:35:54 8.4 0.8 52 79 90 T
1
2020-01-20 08:05:55 8.5 0.6 52 80 91 T
1
2020-01-20 08:35:56 9.3 0.8 50 82 92 G 0
2020-01-20 09:05:58 9.2 1.9 52 79 93 T
1
2020-01-20 09:35:59 8.6 1.8 52 81 98 H 0
2020-01-20 10:06:00 9.3 3.0 52 77 98 H 0
2020-01-20 10:36:01 8.8 3.2 54 80 103 H 0
2020-01-20 11:06:02 8.8 4.0 54 79 106 H 0
2020-01-20 11:36:03 8.6 4.2 55 81 110 H 0
2020-01-20 12:06:04 8.6 4.7 55 81 112 H 0
2020-01-20 12:36:05 8.5 4.5 56 82 113 H 0
2020-01-20 13:06:07 8.5 4.7 56 82 114 H 0
2020-01-20 13:36:08 8.5 5.0 56 81 114 H 0
2020-01-20 14:06:09 8.5 5.0 57 81 114 H 0
2020-01-20 14:36:10 8.5 4.8 57 83 114 H 0
2020-01-20 15:06:11 8.5 4.8 57 83 114 H 0
2020-01-20 15:36:12 8.5 4.9 57 83 114 H 0
2020-01-20 16:06:13 8.5 5.0 58 83 115 H 0
2020-01-20 16:36:14 8.5 4.9 58 85 116 H 0
2020-01-20 17:06:16 8.5 5.0 58 86 118 H 0
2020-01-20 17:36:17 8.5 5.0 58 87 119 H 0
2020-01-20 18:06:18 8.5 4.8 58 89 120 H 0
2020-01-20 18:36:19 8.5 4.8 58 89 120 H 0
2020-01-20 19:06:20 8.5 4.9 58 89 120 H 0
2020-01-20 19:36:21 8.5 5.2 59 89 122 H 0
2020-01-20 20:06:22 8.5 5.4 59 89 124 H 0
2020-01-20 20:36:24 9.1 6.0 58 88 124 H 0
2020-01-20 21:06:25 9.2 6.1 58 89 125 H 0
2020-01-20 21:36:26 9.2 6.1 58 91 127 H 0
2020-01-20 22:06:27 10.2 5.9 56 93 126 H 0
2020-01-20 22:36:28 9.1 6.0 59 93 129 H 0
2020-01-20 23:06:29 8.9 6.3 59 93 132 H 0
2020-01-20 23:36:30 8.8 6.4 59 93 134 H 0
2020-01-21 00:06:31 8.8 6.4 60 95 137 H 0
2020-01-21 00:36:33 8.8 6.4 59 95 137 H 0
2020-01-21 01:06:34 8.7 6.4 60 96 138 H 0
2020-01-21 01:36:35 8.7 6.6 60 96 139 H 0
2020-01-21 02:06:36 8.7 7.0 60 94 140 H 0
2020-01-21 02:36:37 8.7 7.5 60 90 138 H 0
2020-01-21 03:06:38 8.7 7.2 60 92 139 H 0
2020-01-21 03:36:39 8.7 7.0 60 94 139 H 0
2020-01-21 04:06:41 8.7 7.0 61 94 138 H 0
2020-01-21 04:36:42 8.7 7.1 61 94 140 H 0
2020-01-21 05:06:43 8.7 7.3 61 93 139 H 0
2020-01-21 05:36:44 8.7 7.4 61 92 139 H 0
2020-01-21 06:06:45 8.7 7.2 61 92 136 H 0
2020-01-21 06:36:46 8.8 6.9 61 92 133 H 0
2020-01-21 07:06:47 8.8 6.9 61 91 131 H 0
2020-01-21 07:36:48 8.8 6.7 62 92 130 H 0
2020-01-21 08:06:50 10.0 6.6 58 92 127 H 0
2020-01-21 08:36:51 9.4 6.5 60 93 128 H 0
2020-01-21 09:06:52 9.1 6.6 61 92 128 H 0
2020-01-21 09:36:53 9.0 6.8 61 91 129 H 0
2020-01-21 10:06:54 9.0 6.8 61 92 131 H 0
2020-01-21 10:36:55 8.9 6.9 61 87 124 H 0
2020-01-21 11:06:56 8.8 6.8 62 82 117 H 0
2020-01-21 11:36:57 8.6 7.2 62 74 108 H 0
2020-01-21 12:06:59 8.5 6.9 63 74 107 H 0
2020-01-21 12:37:00 8.4 6.6 63 77 109 H 0
2020-01-21 13:07:01 8.3 6.5 63 76 107 H 0
2020-01-21 13:37:02 8.2 6.3 63 77 107 H 0
2020-01-21 14:07:03 8.2 6.0 63 77 106 H 0
2020-01-21 14:37:04 8.1 5.9 64 77 104 H 0


2020-01-21 15:43:01 CET